Weather History for KDTL - August, 2013

Change the Weather History Date:

Wednesday, August 7, 2013

  Actual Average Record
Temperature  
Mean Temperature 60 °F -  
Max Temperature 69 °F 81 °F 96 °F (1983)
Min Temperature 50 °F 55 °F 37 °F (1989)
Degree Days  
Heating Degree Days 6    
Growing Degree Days 10 (Base 50)    
Moisture  
Dew Point 51 °F    
Average Humidity 73    
Maximum Humidity 100    
Minimum Humidity 46    
Precipitation  
Precipitation 0.00 in - - ()
Sea Level Pressure  
Sea Level Pressure 30.00 in    
Wind  
Wind Speed 5 mph (NW)    
Max Wind Speed 10 mph    
Max Gust Speed -    
Visibility 8 miles    
Events Fog    
Averages and records for this station are not official NWS values.
T = Trace of Precipitation, MM = Missing Value Source: NWS Daily Summary

Daily Weather History Graph

Daily Weather History Graph

Search for Another Location

Airport or City:

Trip Planner

Search our weather history database for the weather conditions in past years. The results will help you decide how hot, cold, wet, or windy it might be!

Date:

Astronomy

Aug. 07, 2013 Rise Set
Actual Time 6:11 AM CDT 8:46 PM CDT
Civil Twilight 5:36 AM CDT 9:20 PM CDT
Nautical Twilight 4:53 AM CDT 10:03 PM CDT
Astronomical Twilight 4:03 AM CDT 10:53 PM CDT
Moon 7:08 AM CDT (8/7) 8:44 PM CDT (8/7)
Length of Visible Light 15h 43m
Length of Day
14h 35m
New Moon, 1% of the Moon is Illuminated
Aug 7
New Moon
Aug 14
First Quarter
Aug 20
Full
Aug 28
Last Quarter
Sep 5
New

Hourly Weather History & Observations

Time (CDT) Temp. Dew Point Humidity Pressure Visibility Wind Dir Wind Speed Gust Speed Precip Events Conditions
12:15 AM 55.4 °F 55.4 °F 100% 29.90 in 7.0 mi NNW 8.1 mph - N/A   Clear
12:36 AM 55.4 °F 55.4 °F 100% 29.90 in 7.0 mi NW 5.8 mph - N/A   Clear
12:55 AM 55.4 °F 53.6 °F 94% 29.91 in 5.0 mi NW 5.8 mph - N/A   Scattered Clouds
1:15 AM 55.4 °F 53.6 °F 94% 29.91 in 3.0 mi NNW 6.9 mph - N/A   Overcast
1:36 AM 55.4 °F 55.4 °F 100% 29.91 in 0.8 mi North 6.9 mph - N/A   Overcast
1:55 AM 55.4 °F 55.4 °F 100% 29.92 in 0.2 mi North 9.2 mph - N/A Fog Fog
2:15 AM 55.4 °F 55.4 °F 100% 29.93 in 0.5 mi NNW 10.4 mph - N/A Fog Fog
2:36 AM 55.4 °F 55.4 °F 100% 29.94 in 0.2 mi NNW 8.1 mph - N/A Fog Fog
2:55 AM 55.4 °F 53.6 °F 94% 29.93 in 2.5 mi North 3.5 mph - N/A   Overcast
3:15 AM 55.4 °F 53.6 °F 94% 29.93 in 10.0 mi North 3.5 mph - N/A   Mostly Cloudy
3:35 AM 53.6 °F 53.6 °F 100% 29.94 in 10.0 mi NNW 4.6 mph - N/A   Scattered Clouds
3:55 AM 53.6 °F 53.6 °F 100% 29.94 in 10.0 mi Calm Calm - N/A   Clear
4:16 AM 53.6 °F 51.8 °F 94% 29.94 in 10.0 mi NW 4.6 mph - N/A   Clear
4:35 AM 53.6 °F 51.8 °F 94% 29.95 in 10.0 mi WNW 5.8 mph - N/A   Clear
4:55 AM 51.8 °F 51.8 °F 100% 29.96 in 0.5 mi NW 4.6 mph - N/A Fog Fog
5:16 AM 51.8 °F 51.8 °F 100% 29.96 in 5.0 mi NW 4.6 mph - N/A   Scattered Clouds
5:35 AM 51.8 °F 51.8 °F 100% 29.96 in 10.0 mi NW 3.5 mph - N/A   Scattered Clouds
5:55 AM 51.8 °F 51.8 °F 100% 29.97 in 10.0 mi WNW 4.6 mph - N/A   Clear
6:16 AM 51.8 °F 51.8 °F 100% 29.97 in 10.0 mi NW 4.6 mph - N/A   Clear
6:35 AM 51.8 °F 50.0 °F 94% 29.98 in 10.0 mi NW 5.8 mph - N/A   Clear
6:55 AM 50.0 °F 50.0 °F 100% 29.98 in 0.5 mi NW 4.6 mph - N/A Fog Fog
7:15 AM 51.8 °F 50.0 °F 94% 29.98 in 0.2 mi NNW 3.5 mph - N/A Fog Fog
7:35 AM 51.8 °F 51.8 °F 100% 29.99 in 5.0 mi NW 5.8 mph - N/A   Scattered Clouds
7:55 AM 51.8 °F 51.8 °F 100% 29.99 in 10.0 mi WNW 3.5 mph - N/A   Clear
8:15 AM 53.6 °F 51.8 °F 94% 30.00 in 10.0 mi Calm Calm - N/A   Clear
8:35 AM 55.4 °F 51.8 °F 88% 30.00 in 10.0 mi Calm Calm - N/A   Clear
8:55 AM 57.2 °F 51.8 °F 82% 30.01 in 10.0 mi Calm Calm - N/A   Clear
9:15 AM 59.0 °F 50.0 °F 72% 30.01 in 10.0 mi NE 5.8 mph - N/A   Clear
9:35 AM 59.0 °F 50.0 °F 72% 30.02 in 10.0 mi NE 4.6 mph - N/A   Clear
9:55 AM 60.8 °F 50.0 °F 68% 30.02 in 10.0 mi NNE 3.5 mph - N/A   Clear
10:15 AM 62.6 °F 50.0 °F 63% 30.03 in 10.0 mi Calm Calm - N/A   Clear
10:35 AM 62.6 °F 50.0 °F 63% 30.03 in 10.0 mi Calm Calm - N/A   Clear
10:56 AM 62.6 °F 50.0 °F 63% 30.03 in 10.0 mi NNW 6.9 mph - N/A   Clear
11:15 AM 64.4 °F 50.0 °F 59% 30.03 in 10.0 mi North 4.6 mph - N/A   Clear
11:35 AM 64.4 °F 50.0 °F 59% 30.03 in 10.0 mi North 8.1 mph - N/A   Clear
11:55 AM 64.4 °F 46.4 °F 52% 30.04 in 0.8 mi North 6.9 mph - N/A   Haze
12:15 PM 66.2 °F 50.0 °F 56% 30.04 in 10.0 mi NNE 5.8 mph - N/A   Clear
12:36 PM 66.2 °F 48.2 °F 52% 30.04 in 10.0 mi NNW 9.2 mph - N/A   Clear
12:55 PM 68.0 °F 46.4 °F 46% 30.04 in 10.0 mi NNW 9.2 mph - N/A   Clear
1:15 PM 68.0 °F 48.2 °F 49% 30.04 in 10.0 mi North 4.6 mph - N/A   Clear
1:35 PM 68.0 °F 50.0 °F 52% 30.04 in 10.0 mi NNW 8.1 mph - N/A   Clear
1:55 PM 68.0 °F 50.0 °F 52% 30.04 in 10.0 mi NNW 9.2 mph - N/A   Clear
2:15 PM 68.0 °F 48.2 °F 49% 30.04 in 10.0 mi NW 5.8 mph - N/A   Clear
2:35 PM 68.0 °F 50.0 °F 52% 30.04 in 10.0 mi WNW 9.2 mph - N/A   Scattered Clouds
2:55 PM 68.0 °F 50.0 °F 52% 30.03 in 10.0 mi NW 5.8 mph - N/A   Scattered Clouds
3:15 PM 68.0 °F 48.2 °F 49% 30.04 in 10.0 mi WNW 8.1 mph - N/A   Clear
3:35 PM 69.8 °F 48.2 °F 46% 30.03 in 10.0 mi West 4.6 mph - N/A   Clear
3:55 PM 69.8 °F 50.0 °F 49% 30.03 in 10.0 mi NNW 8.1 mph - N/A   Scattered Clouds
4:15 PM 69.8 °F 50.0 °F 49% 30.03 in 10.0 mi NE 4.6 mph - N/A   Scattered Clouds
4:35 PM 69.8 °F 48.2 °F 46% 30.03 in 10.0 mi NW 6.9 mph - N/A   Scattered Clouds
4:55 PM 69.8 °F 48.2 °F 46% 30.03 in 10.0 mi NNW 5.8 mph - N/A   Scattered Clouds
5:15 PM 68.0 °F 48.2 °F 49% 30.02 in 10.0 mi WNW 4.6 mph - N/A   Clear
5:35 PM 69.8 °F 50.0 °F 49% 30.02 in 10.0 mi West 5.8 mph - N/A   Clear
5:55 PM 69.8 °F 50.0 °F 49% 30.02 in 10.0 mi West 5.8 mph - N/A   Scattered Clouds
6:15 PM 69.8 °F 48.2 °F 46% 30.02 in 10.0 mi WSW 4.6 mph - N/A   Clear
6:35 PM 69.8 °F 48.2 °F 46% 30.02 in 10.0 mi West 5.8 mph - N/A   Clear
6:55 PM 69.8 °F 50.0 °F 49% 30.02 in 10.0 mi WNW 4.6 mph - N/A   Clear
7:15 PM 69.8 °F 50.0 °F 49% 30.02 in 10.0 mi West 4.6 mph - N/A   Clear
7:35 PM 68.0 °F 50.0 °F 52% 30.02 in 10.0 mi West 4.6 mph - N/A   Clear
7:55 PM 68.0 °F 51.8 °F 56% 30.02 in 10.0 mi West 3.5 mph - N/A   Clear
8:15 PM 66.2 °F 51.8 °F 60% 30.02 in 10.0 mi Calm Calm - N/A   Clear
8:35 PM 64.4 °F 51.8 °F 64% 30.02 in 10.0 mi Calm Calm - N/A   Clear
8:55 PM 64.4 °F 51.8 °F 64% 30.02 in 10.0 mi Calm Calm - N/A   Clear
9:15 PM 64.4 °F 53.6 °F 68% 30.02 in 10.0 mi Calm Calm - N/A   Scattered Clouds
9:36 PM 62.6 °F 53.6 °F 72% 30.02 in 10.0 mi Calm Calm - N/A   Scattered Clouds
9:55 PM 60.8 °F 55.4 °F 82% 30.03 in 10.0 mi Calm Calm - N/A   Clear
10:15 PM 59.0 °F 55.4 °F 88% 30.02 in 10.0 mi Calm Calm - N/A   Clear
10:36 PM 59.0 °F 53.6 °F 82% 30.02 in 10.0 mi Calm Calm - N/A   Clear
10:55 PM 59.0 °F 55.4 °F 88% 30.02 in 10.0 mi Calm Calm - N/A   Clear
11:15 PM 60.8 °F 55.4 °F 82% 30.03 in 10.0 mi Calm Calm - N/A   Clear
11:36 PM 59.0 °F 53.6 °F 82% 30.03 in 10.0 mi Calm Calm - N/A   Clear
11:55 PM 59.0 °F 53.6 °F 82% 30.03 in 10.0 mi Calm Calm - N/A   Scattered Clouds